createdAt,value
2022-08-09T00:00:00.176Z,99267.97
2022-08-09T00:02:28.088Z,99270.03
2022-08-09T00:05:03.654Z,99269.53
2022-08-09T00:07:44.946Z,99268.28
2022-08-09T00:10:14.412Z,99263.28
2022-08-09T00:12:47.527Z,99271.63
2022-08-09T00:15:19.026Z,99277.25
2022-08-09T00:18:05.565Z,99269.50
2022-08-09T00:20:32.413Z,99278.72
2022-08-09T00:23:04.891Z,99276.22
2022-08-09T00:25:51.649Z,99277.84
2022-08-09T00:28:19.314Z,99269.06
2022-08-09T00:30:50.563Z,99275.31
2022-08-09T00:33:17.167Z,99277.47
2022-08-09T00:35:44.073Z,99276.97
2022-08-09T00:38:12.622Z,99271.78
2022-08-09T00:40:52.735Z,99270.34
2022-08-09T00:44:18.855Z,99263.13
2022-08-09T00:46:10.963Z,99265.84
2022-08-09T00:48:41.249Z,99260.56
2022-08-09T00:51:16.667Z,99263.19
2022-08-09T00:53:46.491Z,99268.53
2022-08-09T00:56:14.082Z,99265.13
2022-08-09T00:58:40.682Z,99265.22
2022-08-09T01:01:16.291Z,99275.19
2022-08-09T01:03:50.243Z,99267.16
2022-08-09T01:06:54.666Z,99267.34
2022-08-09T01:09:39.426Z,99267.63
2022-08-09T01:12:17.830Z,99266.66
2022-08-09T01:14:53.110Z,99261.50
2022-08-09T01:17:30.547Z,99270.59
2022-08-09T01:20:10.437Z,99270.72
2022-08-09T01:23:00.667Z,99271.53
2022-08-09T01:25:48.789Z,99269.81
2022-08-09T01:28:19.122Z,99270.69
2022-08-09T01:30:52.138Z,99272.41
2022-08-09T01:33:24.297Z,99272.84
2022-08-09T01:36:02.631Z,99274.97
2022-08-09T01:38:34.534Z,99276.09
2022-08-09T01:41:13.667Z,99275.13
2022-08-09T01:43:51.562Z,99269.94
2022-08-09T01:46:27.109Z,99268.97
2022-08-09T01:49:09.431Z,99277.81
2022-08-09T01:51:42.766Z,99274.97
2022-08-09T01:54:11.987Z,99274.19
2022-08-09T01:56:41.745Z,99272.47
2022-08-09T01:59:11.134Z,99276.78
2022-08-09T02:02:00.135Z,99276.31
2022-08-09T02:04:29.709Z,99276.69
2022-08-09T02:07:17.759Z,99281.19
2022-08-09T02:10:07.278Z,99277.69
2022-08-09T02:12:35.576Z,99282.41
2022-08-09T02:15:06.317Z,99286.25
2022-08-09T02:18:10.007Z,99286.47
2022-08-09T02:20:26.214Z,99288.38
2022-08-09T02:23:14.010Z,99284.75
2022-08-09T02:25:52.870Z,99288.38
2022-08-09T02:28:34.286Z,99290.91
2022-08-09T02:31:08.826Z,99285.69
2022-08-09T02:34:06.736Z,99292.91
2022-08-09T02:36:33.870Z,99296.72
2022-08-09T02:39:04.895Z,99292.38
2022-08-09T02:41:38.980Z,99293.97
2022-08-09T02:44:13.666Z,99293.97
2022-08-09T02:47:00.919Z,99293.13
2022-08-09T02:49:38.309Z,99288.06
2022-08-09T02:52:07.789Z,99293.53
2022-08-09T02:54:51.124Z,99297.31
2022-08-09T02:57:23.654Z,99300.00
2022-08-09T03:00:11.430Z,99294.75
2022-08-09T03:02:39.881Z,99298.19
2022-08-09T03:05:26.492Z,99283.88
2022-08-09T03:07:55.706Z,99288.19
2022-08-09T03:10:24.302Z,99283.66
2022-08-09T03:12:53.164Z,99292.91
2022-08-09T03:15:22.987Z,99296.66
2022-08-09T03:17:58.038Z,99292.34
2022-08-09T03:20:29.447Z,99288.88
2022-08-09T03:22:58.312Z,99292.38
2022-08-09T03:25:57.670Z,99300.22
2022-08-09T03:28:17.801Z,99298.41
2022-08-09T03:30:45.906Z,99302.50
2022-08-09T03:33:19.100Z,99305.38
2022-08-09T03:36:12.258Z,99303.81
2022-08-09T03:38:37.286Z,99302.84
2022-08-09T03:41:08.815Z,99312.53
2022-08-09T03:43:36.473Z,99312.59
2022-08-09T03:46:19.848Z,99315.13
2022-08-09T03:48:55.020Z,99312.72
2022-08-09T03:51:56.365Z,99310.00
2022-08-09T03:54:14.689Z,99309.09
2022-08-09T03:56:41.992Z,99317.81
2022-08-09T03:59:17.064Z,99317.72
2022-08-09T04:01:49.668Z,99318.81
2022-08-09T04:04:17.418Z,99318.16
2022-08-09T04:06:49.191Z,99323.50
2022-08-09T04:09:44.339Z,99324.34
2022-08-09T04:12:11.909Z,99323.84
2022-08-09T04:15:01.902Z,99339.41
2022-08-09T04:17:29.773Z,99333.16
2022-08-09T04:19:56.642Z,99337.41
2022-08-09T04:22:23.431Z,99327.72
2022-08-09T04:24:49.947Z,99330.31
2022-08-09T04:27:17.127Z,99332.06
2022-08-09T04:29:50.111Z,99332.84
2022-08-09T04:32:23.684Z,99335.25
2022-08-09T04:35:04.995Z,99337.78
2022-08-09T04:37:45.601Z,99336.78
2022-08-09T04:40:19.043Z,99336.56
2022-08-09T04:42:48.530Z,99342.47
2022-08-09T04:45:16.630Z,99345.03
2022-08-09T04:47:59.374Z,99350.00
2022-08-09T04:50:33.609Z,99354.00
2022-08-09T04:53:02.180Z,99361.72
2022-08-09T04:55:40.585Z,99361.44
2022-08-09T04:58:15.199Z,99361.75
2022-08-09T05:00:43.028Z,99363.03
2022-08-09T05:03:13.395Z,99364.34
2022-08-09T05:06:04.346Z,99366.44
2022-08-09T05:08:34.765Z,99372.06
2022-08-09T05:11:02.419Z,99371.38
2022-08-09T05:13:29.170Z,99371.53
2022-08-09T05:16:00.124Z,99376.03
2022-08-09T05:18:55.057Z,99370.59
2022-08-09T05:21:23.346Z,99373.84
2022-08-09T05:23:59.516Z,99384.25
2022-08-09T05:26:45.375Z,99377.66
2022-08-09T05:29:21.902Z,99376.06
2022-08-09T05:31:57.380Z,99391.56
2022-08-09T05:34:31.043Z,99385.00
2022-08-09T05:37:06.104Z,99385.69
2022-08-09T05:39:42.595Z,99391.41
2022-08-09T05:42:18.024Z,99397.31
2022-08-09T05:44:52.533Z,99395.22
2022-08-09T05:47:21.765Z,99398.06
2022-08-09T05:50:25.101Z,99405.72
2022-08-09T05:52:38.569Z,99401.63
2022-08-09T05:55:07.311Z,99402.25
2022-08-09T05:57:51.115Z,99405.19
2022-08-09T06:00:22.112Z,99399.09
2022-08-09T06:02:48.881Z,99398.06
2022-08-09T06:05:16.232Z,99402.47
2022-08-09T06:07:42.914Z,99405.59
2022-08-09T06:10:15.930Z,99411.03
2022-08-09T06:12:44.696Z,99411.47
2022-08-09T06:15:17.302Z,99404.75
2022-08-09T06:17:43.740Z,99411.50
2022-08-09T06:20:13.356Z,99411.00
2022-08-09T06:22:45.753Z,99416.38
2022-08-09T06:25:16.160Z,99420.72
2022-08-09T06:27:51.330Z,99423.47
2022-08-09T06:30:18.473Z,99420.66
2022-08-09T06:33:00.708Z,99415.88
2022-08-09T06:35:56.468Z,99427.47
2022-08-09T06:38:19.249Z,99427.72
2022-08-09T06:40:45.870Z,99428.44
2022-08-09T06:43:13.548Z,99436.16
2022-08-09T06:46:06.056Z,99438.91
2022-08-09T06:48:30.964Z,99437.84
2022-08-09T06:50:59.819Z,99444.09
2022-08-09T06:53:26.400Z,99435.88
2022-08-09T06:55:53.249Z,99440.63
2022-08-09T07:00:46.446Z,99443.31
2022-08-09T07:01:07.957Z,99439.28
2022-08-09T07:03:39.654Z,99451.22
2022-08-09T07:06:18.908Z,99444.53
2022-08-09T07:08:46.668Z,99450.38
2022-08-09T07:11:17.650Z,99438.13
2022-08-09T07:14:04.813Z,99447.00
2022-08-09T07:16:41.316Z,99448.88
2022-08-09T07:19:15.345Z,99444.63
2022-08-09T07:21:55.324Z,99446.06
2022-08-09T07:24:32.792Z,99449.28
2022-08-09T07:27:11.072Z,99440.13
2022-08-09T07:29:56.953Z,99450.09
2022-08-09T07:32:32.291Z,99448.28
2022-08-09T07:35:00.999Z,99449.75
2022-08-09T07:37:29.540Z,99455.25
2022-08-09T07:39:56.125Z,99456.34
2022-08-09T07:42:32.441Z,99452.13
2022-08-09T07:45:06.436Z,99451.44
2022-08-09T07:48:00.570Z,99442.47
2022-08-09T07:50:33.055Z,99447.47
2022-08-09T07:53:03.042Z,99443.03
2022-08-09T07:55:41.651Z,99445.31
2022-08-09T07:58:17.920Z,99450.34
2022-08-09T08:00:55.947Z,99444.59
2022-08-09T08:03:31.589Z,99440.41
2022-08-09T08:05:58.596Z,99448.88
2022-08-09T08:09:01.779Z,99453.28
2022-08-09T08:12:10.009Z,99448.84
2022-08-09T08:13:58.886Z,99458.69
2022-08-09T08:16:31.602Z,99449.69
2022-08-09T08:18:59.378Z,99451.31
2022-08-09T08:21:26.671Z,99451.56
2022-08-09T08:23:55.603Z,99437.91
2022-08-09T08:26:26.639Z,99446.47
2022-08-09T08:29:08.973Z,99440.00
2022-08-09T08:32:02.766Z,99435.56
2022-08-09T08:34:25.244Z,99438.56
2022-08-09T08:36:52.473Z,99436.53
2022-08-09T08:39:19.062Z,99439.25
2022-08-09T08:41:51.893Z,99440.72
2022-08-09T08:44:26.971Z,99441.50
2022-08-09T08:46:59.644Z,99442.72
2022-08-09T08:49:38.669Z,99433.03
2022-08-09T08:52:34.943Z,99439.78
2022-08-09T08:55:03.979Z,99436.19
2022-08-09T08:57:35.265Z,99429.00
2022-08-09T09:00:08.237Z,99440.25
2022-08-09T09:02:49.991Z,99439.13
2022-08-09T09:05:57.636Z,99437.84
2022-08-09T09:08:29.934Z,99438.25
2022-08-09T09:11:01.283Z,99441.38
2022-08-09T09:13:41.901Z,99440.53
2022-08-09T09:16:15.423Z,99445.66
2022-08-09T09:18:48.055Z,99446.22
2022-08-09T09:21:14.778Z,99447.94
2022-08-09T09:23:49.823Z,99444.25
2022-08-09T09:26:25.977Z,99442.44
2022-08-09T09:29:03.380Z,99446.47
2022-08-09T09:32:06.542Z,99443.66
2022-08-09T09:34:23.135Z,99432.25
2022-08-09T09:36:53.703Z,99436.69
2022-08-09T09:39:23.454Z,99429.50
2022-08-09T09:41:54.213Z,99439.22
2022-08-09T09:44:33.899Z,99427.81
2022-08-09T09:47:21.598Z,99421.03
2022-08-09T09:50:15.334Z,99417.63
2022-08-09T09:52:53.735Z,99419.91
2022-08-09T09:55:27.942Z,99423.06
2022-08-09T09:58:15.633Z,99416.19
2022-08-09T10:00:58.850Z,99419.66
2022-08-09T10:03:43.868Z,99415.47
2022-08-09T10:06:12.543Z,99408.16
2022-08-09T10:08:54.385Z,99412.13
2022-08-09T10:12:12.020Z,99413.13
2022-08-09T10:14:27.756Z,99399.88
2022-08-09T10:17:11.564Z,99406.41
2022-08-09T10:19:45.738Z,99398.72
2022-08-09T10:22:12.781Z,99398.31
2022-08-09T10:24:40.856Z,99398.19
2022-08-09T10:27:17.303Z,99394.47
2022-08-09T10:30:43.846Z,99394.78
2022-08-09T10:32:42.743Z,99390.63
2022-08-09T10:35:11.120Z,99381.88
2022-08-09T10:37:39.931Z,99391.50
2022-08-09T10:40:12.238Z,99391.69
2022-08-09T10:42:55.790Z,99397.56
2022-08-09T10:45:23.457Z,99397.34
2022-08-09T10:48:30.634Z,99381.91
2022-08-09T10:51:12.281Z,99388.00
2022-08-09T10:54:04.955Z,99395.06
2022-08-09T10:56:34.513Z,99392.84
2022-08-09T10:59:31.039Z,99379.28
2022-08-09T11:03:15.335Z,99390.25
2022-08-09T11:05:13.182Z,99386.38
2022-08-09T11:07:56.934Z,99386.44
2022-08-09T11:10:56.607Z,99393.78
2022-08-09T11:13:50.607Z,99387.88
2022-08-09T11:16:40.995Z,99377.50
2022-08-09T11:19:10.463Z,99373.88
2022-08-09T11:21:57.390Z,99388.97
2022-08-09T11:24:57.965Z,99383.34
2022-08-09T11:28:02.792Z,99383.78
2022-08-09T11:30:32.299Z,99385.97
2022-08-09T11:33:11.669Z,99386.03
2022-08-09T11:35:50.001Z,99384.06
2022-08-09T11:38:32.654Z,99377.41
2022-08-09T11:41:13.713Z,99371.19
2022-08-09T11:43:43.397Z,99373.28
2022-08-09T11:46:10.551Z,99378.81
2022-08-09T11:48:52.209Z,99378.28
2022-08-09T11:53:00.959Z,99385.72
2022-08-09T11:54:13.675Z,99368.47
2022-08-09T11:56:42.398Z,99364.00
2022-08-09T11:59:30.292Z,99369.13
2022-08-09T12:02:34.565Z,99377.75
2022-08-09T12:04:47.073Z,99373.75
2022-08-09T12:07:14.401Z,99374.22
2022-08-09T12:09:51.043Z,99371.13
2022-08-09T12:12:20.426Z,99371.41
2022-08-09T12:15:07.186Z,99354.97
2022-08-09T12:17:44.434Z,99362.28
2022-08-09T12:20:22.246Z,99362.75
2022-08-09T12:23:00.018Z,99363.31
2022-08-09T12:29:11.489Z,99364.91
2022-08-09T12:31:31.109Z,99359.41
2022-08-09T12:34:13.455Z,99353.47
2022-08-09T12:36:52.178Z,99352.75
2022-08-09T12:39:26.021Z,99349.63
2022-08-09T12:41:54.436Z,99345.19
2022-08-09T12:44:24.558Z,99355.81
2022-08-09T12:46:51.541Z,99348.47
2022-08-09T12:49:21.073Z,99344.81
2022-08-09T12:52:01.315Z,99351.28
2022-08-09T12:54:29.744Z,99352.28
2022-08-09T12:56:58.705Z,99345.31
2022-08-09T12:59:57.721Z,99342.56
2022-08-09T13:02:11.978Z,99348.41
2022-08-09T13:04:41.722Z,99345.22
2022-08-09T13:07:16.867Z,99335.66
2022-08-09T13:09:55.381Z,99341.41
2022-08-09T13:12:27.151Z,99333.59
2022-08-09T13:15:04.543Z,99332.91
2022-08-09T13:18:02.861Z,99340.00
2022-08-09T13:20:37.194Z,99341.03
2022-08-09T13:24:11.829Z,99322.78
2022-08-09T13:25:54.758Z,99342.31
2022-08-09T13:28:33.817Z,99338.69
2022-08-09T13:32:17.165Z,99339.25
2022-08-09T13:33:58.038Z,99335.78
2022-08-09T13:36:41.468Z,99330.16
2022-08-09T13:39:34.355Z,99337.16
2022-08-09T13:42:11.995Z,99339.00
2022-08-09T13:44:42.063Z,99338.59
2022-08-09T13:47:27.705Z,99345.75
2022-08-09T13:50:04.321Z,99345.97
2022-08-09T13:52:39.590Z,99342.22
2022-08-09T13:55:13.672Z,99331.78
2022-08-09T13:57:55.992Z,99337.91
2022-08-09T14:00:28.297Z,99339.22
2022-08-09T14:03:03.485Z,99333.09
2022-08-09T14:06:00.291Z,99333.75
2022-08-09T14:08:29.827Z,99319.41
2022-08-09T14:10:56.798Z,99316.19
2022-08-09T14:13:28.205Z,99307.34
2022-08-09T14:16:16.794Z,99309.16
2022-08-09T14:18:49.132Z,99319.03
2022-08-09T14:21:20.058Z,99314.53
2022-08-09T14:23:54.708Z,99311.81
2022-08-09T14:26:25.380Z,99313.19
2022-08-09T14:28:59.014Z,99323.91
2022-08-09T14:31:36.425Z,99321.38
2022-08-09T14:34:13.099Z,99320.00
2022-08-09T14:36:44.902Z,99318.94
2022-08-09T14:39:11.617Z,99310.50
2022-08-09T14:41:41.851Z,99305.97
2022-08-09T14:44:09.572Z,99317.00
2022-08-09T14:47:04.633Z,99304.19
2022-08-09T14:49:26.307Z,99314.41
2022-08-09T14:51:58.782Z,99315.31
2022-08-09T14:54:28.162Z,99317.50
2022-08-09T14:56:58.867Z,99323.53
2022-08-09T14:59:28.537Z,99306.81
2022-08-09T15:01:55.848Z,99318.53
2022-08-09T15:04:23.567Z,99304.72
2022-08-09T15:06:51.373Z,99319.38
2022-08-09T15:09:52.041Z,99313.59
2022-08-09T15:12:07.762Z,99302.19
2022-08-09T15:14:38.152Z,99322.28
2022-08-09T15:17:08.920Z,99306.06
2022-08-09T15:19:36.619Z,99296.75
2022-08-09T15:22:04.091Z,99308.75
2022-08-09T15:24:32.425Z,99292.31
2022-08-09T15:26:59.418Z,99302.56
2022-08-09T15:30:58.205Z,99301.44
2022-08-09T15:32:28.448Z,99307.63
2022-08-09T15:34:59.894Z,99314.00
2022-08-09T15:37:56.943Z,99307.09
2022-08-09T15:40:32.187Z,99305.91
2022-08-09T15:43:01.891Z,99309.34
2022-08-09T15:45:51.953Z,99302.97
2022-08-09T15:48:28.821Z,99302.69
2022-08-09T15:50:56.709Z,99303.44
2022-08-09T15:54:05.834Z,99296.31
2022-08-09T15:56:23.432Z,99284.41
2022-08-09T15:58:57.052Z,99296.78
2022-08-09T16:01:23.612Z,99291.44
2022-08-09T16:03:51.203Z,99295.31
2022-08-09T16:06:32.361Z,99291.91
2022-08-09T16:09:04.879Z,99294.03
2022-08-09T16:11:33.335Z,99293.53
2022-08-09T16:14:05.508Z,99286.59
2022-08-09T16:16:37.829Z,99294.22
2022-08-09T16:19:09.674Z,99287.72
2022-08-09T16:21:37.335Z,99284.41
2022-08-09T16:24:13.076Z,99283.69
2022-08-09T16:26:56.765Z,99290.16
2022-08-09T16:29:37.948Z,99279.59
2022-08-09T16:32:33.443Z,99284.28
2022-08-09T16:34:58.384Z,99270.53
2022-08-09T16:37:55.658Z,99282.84
2022-08-09T16:40:29.963Z,99282.66
2022-08-09T16:43:02.491Z,99279.63
2022-08-09T16:45:29.167Z,99275.94
2022-08-09T16:48:39.116Z,99273.22
2022-08-09T16:50:59.071Z,99276.44
2022-08-09T16:53:26.846Z,99283.78
2022-08-09T16:56:03.656Z,99275.19
2022-08-09T16:58:36.784Z,99284.03
2022-08-09T17:01:04.603Z,99267.06
2022-08-09T17:03:31.350Z,99274.66
2022-08-09T17:06:06.656Z,99277.09
2022-08-09T17:08:45.796Z,99275.63
2022-08-09T17:11:41.205Z,99276.16
2022-08-09T17:14:16.004Z,99274.31
2022-08-09T17:16:56.073Z,99279.66
2022-08-09T17:19:22.527Z,99279.50
2022-08-09T17:21:55.575Z,99278.91
2022-08-09T17:24:27.960Z,99280.22
2022-08-09T17:26:56.986Z,99284.09
2022-08-09T17:29:25.245Z,99288.75
2022-08-09T17:32:00.220Z,99278.47
2022-08-09T17:35:04.142Z,99283.69
2022-08-09T17:37:19.907Z,99284.50
2022-08-09T17:39:52.666Z,99290.63
2022-08-09T17:42:40.791Z,99284.97
2022-08-09T17:45:15.985Z,99291.63
2022-08-09T17:47:55.634Z,99305.06
2022-08-09T17:50:36.841Z,99301.81
2022-08-09T17:53:10.328Z,99297.13
2022-08-09T17:55:49.525Z,99302.28
2022-08-09T17:58:19.008Z,99308.34
2022-08-09T18:00:47.995Z,99308.31
2022-08-09T18:03:15.210Z,99312.75
2022-08-09T18:05:44.729Z,99311.03
2022-08-09T18:08:13.377Z,99308.34
2022-08-09T18:10:40.221Z,99315.81
2022-08-09T18:13:38.993Z,99314.28
2022-08-09T18:16:08.849Z,99310.72
2022-08-09T18:18:36.350Z,99318.38
2022-08-09T18:21:23.810Z,99323.78
2022-08-09T18:24:09.944Z,99327.34
2022-08-09T18:26:46.290Z,99332.63
2022-08-09T18:30:37.883Z,99334.94
2022-08-09T18:32:05.155Z,99330.03
2022-08-09T18:34:35.117Z,99331.50
2022-08-09T18:37:10.482Z,99336.22
2022-08-09T18:39:53.272Z,99336.22
2022-08-09T18:42:19.852Z,99342.75
2022-08-09T18:44:47.903Z,99343.81
2022-08-09T18:47:17.498Z,99344.13
2022-08-09T18:49:47.309Z,99348.63
2022-08-09T18:52:15.859Z,99352.94
2022-08-09T18:54:52.547Z,99352.22
2022-08-09T18:57:22.190Z,99354.16
2022-08-09T18:59:55.587Z,99355.59
2022-08-09T19:02:30.759Z,99358.22
2022-08-09T19:05:04.208Z,99363.22
2022-08-09T19:08:04.921Z,99363.63
2022-08-09T19:10:37.045Z,99365.56
2022-08-09T19:13:20.448Z,99367.69
2022-08-09T19:15:51.342Z,99375.75
2022-08-09T19:18:33.731Z,99367.13
2022-08-09T19:21:05.600Z,99371.53
2022-08-09T19:24:32.522Z,99373.41
2022-08-09T19:26:22.457Z,99374.66
2022-08-09T19:29:01.249Z,99369.47
2022-08-09T19:31:30.438Z,99372.41
2022-08-09T19:34:21.262Z,99375.91
2022-08-09T19:36:53.365Z,99378.84
2022-08-09T19:39:43.744Z,99383.88
2022-08-09T19:42:08.272Z,99385.78
2022-08-09T19:44:35.424Z,99389.75
2022-08-09T19:47:02.569Z,99389.53
2022-08-09T19:50:08.756Z,99392.00
2022-08-09T19:52:25.698Z,99389.25
2022-08-09T19:54:52.788Z,99389.78
2022-08-09T19:57:19.591Z,99392.19
2022-08-09T20:00:05.574Z,99393.41
2022-08-09T20:04:09.977Z,99397.47
2022-08-09T20:05:23.688Z,99393.22
2022-08-09T20:08:00.230Z,99394.16
2022-08-09T20:10:36.865Z,99389.66
2022-08-09T20:13:06.225Z,99395.47
2022-08-09T20:16:36.762Z,99392.34
2022-08-09T20:18:20.343Z,99388.06
2022-08-09T20:20:50.511Z,99392.19
2022-08-09T20:23:19.429Z,99396.00
2022-08-09T20:25:52.253Z,99389.44
2022-08-09T20:28:32.027Z,99390.50
2022-08-09T20:31:10.738Z,99385.66
2022-08-09T20:33:41.038Z,99392.81
2022-08-09T20:36:10.964Z,99393.19
2022-08-09T20:41:35.033Z,99394.66
2022-08-09T20:44:04.977Z,99402.22
2022-08-09T20:46:44.624Z,99399.56
2022-08-09T20:49:13.112Z,99397.53
2022-08-09T20:51:41.991Z,99396.34
2022-08-09T20:54:12.929Z,99406.47
2022-08-09T20:56:43.613Z,99398.00
2022-08-09T20:59:16.854Z,99404.22
2022-08-09T21:01:50.546Z,99400.50
2022-08-09T21:05:53.363Z,99397.75
2022-08-09T21:07:10.924Z,99403.81
2022-08-09T21:09:42.053Z,99406.41
2022-08-09T21:14:48.369Z,99401.25
2022-08-09T21:18:23.636Z,99411.47
2022-08-09T21:20:19.564Z,99409.13
2022-08-09T21:22:52.447Z,99406.75
2022-08-09T21:25:39.117Z,99402.53
2022-08-09T21:28:12.245Z,99412.78
2022-08-09T21:30:42.939Z,99415.19
2022-08-09T21:33:10.419Z,99412.78
2022-08-09T21:35:41.006Z,99413.19
2022-08-09T21:38:18.975Z,99415.16
2022-08-09T21:40:58.045Z,99410.50
2022-08-09T21:43:46.690Z,99409.97
2022-08-09T21:46:12.031Z,99406.81
2022-08-09T21:48:42.456Z,99402.91
2022-08-09T21:51:14.053Z,99411.03
2022-08-09T21:53:41.476Z,99411.84
2022-08-09T21:56:15.107Z,99409.47
2022-08-09T21:58:54.720Z,99408.34
2022-08-09T22:01:44.985Z,99417.63
2022-08-09T22:04:08.028Z,99408.84
2022-08-09T22:06:34.469Z,99407.69
2022-08-09T22:09:01.457Z,99420.00
2022-08-09T22:12:06.034Z,99417.34
2022-08-09T22:14:14.995Z,99413.31
2022-08-09T22:16:41.563Z,99420.28
2022-08-09T22:19:59.163Z,99415.25
2022-08-09T22:21:55.190Z,99419.03
2022-08-09T22:24:24.907Z,99415.59
2022-08-09T22:26:52.387Z,99418.53
2022-08-09T22:29:19.813Z,99414.25
2022-08-09T22:31:56.347Z,99418.81
2022-08-09T22:34:26.319Z,99419.41
2022-08-09T22:36:54.824Z,99416.41
2022-08-09T22:39:55.978Z,99423.38
2022-08-09T22:42:21.364Z,99422.88
2022-08-09T22:45:02.273Z,99412.25
2022-08-09T22:48:14.137Z,99414.69
2022-08-09T22:50:25.669Z,99420.19
2022-08-09T22:52:54.687Z,99415.94
2022-08-09T22:55:24.345Z,99414.59
2022-08-09T22:57:59.887Z,99420.19
2022-08-09T23:00:29.265Z,99420.19
2022-08-09T23:02:56.277Z,99420.25
2022-08-09T23:05:22.866Z,99418.59
2022-08-09T23:08:22.207Z,99429.78
2022-08-09T23:10:50.405Z,99420.00
2022-08-09T23:13:16.875Z,99420.34
2022-08-09T23:15:43.381Z,99419.88
2022-08-09T23:18:29.816Z,99425.34
2022-08-09T23:20:56.231Z,99420.41
2022-08-09T23:23:22.710Z,99423.59
2022-08-09T23:25:49.356Z,99426.72
2022-08-09T23:28:16.274Z,99420.75
2022-08-09T23:30:51.633Z,99431.66
2022-08-09T23:33:20.643Z,99432.09
2022-08-09T23:36:04.940Z,99422.75
2022-08-09T23:38:33.971Z,99423.78
2022-08-09T23:41:01.698Z,99420.19
2022-08-09T23:43:28.155Z,99421.31
2022-08-09T23:45:54.601Z,99429.53
2022-08-09T23:48:21.079Z,99418.09
2022-08-09T23:50:47.578Z,99420.00
2022-08-09T23:53:14.018Z,99422.06
2022-08-09T23:55:46.225Z,99421.31
2022-08-09T23:58:25.790Z,99420.56
